sensor_id;sensor_type;location;lat;lon;timestamp;P1;durP1;ratioP1;P2;durP2;ratioP2
66721;SDS011;53633;49.932;10.884;2023-04-25T00:01:39;10.07;;;3.92;;
66721;SDS011;53633;49.932;10.884;2023-04-25T00:04:06;7.75;;;3.92;;
66721;SDS011;53633;49.932;10.884;2023-04-25T00:06:34;7.82;;;3.58;;
66721;SDS011;53633;49.932;10.884;2023-04-25T00:09:01;8.38;;;3.58;;
66721;SDS011;53633;49.932;10.884;2023-04-25T00:11:28;8.40;;;3.33;;
66721;SDS011;53633;49.932;10.884;2023-04-25T00:13:54;10.88;;;3.63;;
66721;SDS011;53633;49.932;10.884;2023-04-25T00:16:21;6.50;;;2.70;;
66721;SDS011;53633;49.932;10.884;2023-04-25T00:18:49;7.70;;;3.33;;
66721;SDS011;53633;49.932;10.884;2023-04-25T00:21:16;8.35;;;3.10;;
66721;SDS011;53633;49.932;10.884;2023-04-25T00:23:42;7.97;;;3.05;;
66721;SDS011;53633;49.932;10.884;2023-04-25T00:26:09;6.72;;;2.83;;
66721;SDS011;53633;49.932;10.884;2023-04-25T00:28:36;8.15;;;3.40;;
66721;SDS011;53633;49.932;10.884;2023-04-25T00:31:02;7.35;;;3.30;;
66721;SDS011;53633;49.932;10.884;2023-04-25T00:33:29;6.82;;;3.25;;
66721;SDS011;53633;49.932;10.884;2023-04-25T00:35:57;7.20;;;3.40;;
66721;SDS011;53633;49.932;10.884;2023-04-25T00:38:24;7.15;;;3.08;;
66721;SDS011;53633;49.932;10.884;2023-04-25T00:40:50;7.18;;;3.20;;
66721;SDS011;53633;49.932;10.884;2023-04-25T00:43:17;8.30;;;3.35;;
66721;SDS011;53633;49.932;10.884;2023-04-25T00:45:44;6.13;;;2.58;;
66721;SDS011;53633;49.932;10.884;2023-04-25T00:48:13;6.93;;;2.88;;
66721;SDS011;53633;49.932;10.884;2023-04-25T00:50:40;6.80;;;2.92;;
66721;SDS011;53633;49.932;10.884;2023-04-25T00:53:09;7.38;;;3.15;;
66721;SDS011;53633;49.932;10.884;2023-04-25T00:55:35;6.85;;;3.03;;
66721;SDS011;53633;49.932;10.884;2023-04-25T00:58:02;6.53;;;3.00;;
66721;SDS011;53633;49.932;10.884;2023-04-25T01:00:29;8.02;;;3.55;;
66721;SDS011;53633;49.932;10.884;2023-04-25T01:02:55;7.55;;;3.28;;
66721;SDS011;53633;49.932;10.884;2023-04-25T01:05:22;6.25;;;2.75;;
66721;SDS011;53633;49.932;10.884;2023-04-25T01:07:49;7.65;;;3.17;;
66721;SDS011;53633;49.932;10.884;2023-04-25T01:10:17;7.72;;;3.00;;
66721;SDS011;53633;49.932;10.884;2023-04-25T01:12:44;7.60;;;3.10;;
66721;SDS011;53633;49.932;10.884;2023-04-25T01:15:11;7.75;;;3.03;;
66721;SDS011;53633;49.932;10.884;2023-04-25T01:17:37;8.15;;;3.20;;
66721;SDS011;53633;49.932;10.884;2023-04-25T01:20:04;8.25;;;2.92;;
66721;SDS011;53633;49.932;10.884;2023-04-25T01:22:33;9.80;;;3.10;;
66721;SDS011;53633;49.932;10.884;2023-04-25T01:25:00;7.57;;;2.90;;
66721;SDS011;53633;49.932;10.884;2023-04-25T01:27:27;7.57;;;2.60;;
66721;SDS011;53633;49.932;10.884;2023-04-25T01:29:54;7.10;;;2.75;;
66721;SDS011;53633;49.932;10.884;2023-04-25T01:32:21;7.63;;;3.20;;
66721;SDS011;53633;49.932;10.884;2023-04-25T01:34:48;6.50;;;2.35;;
66721;SDS011;53633;49.932;10.884;2023-04-25T01:37:16;7.05;;;2.65;;
66721;SDS011;53633;49.932;10.884;2023-04-25T01:39:44;6.80;;;2.50;;
66721;SDS011;53633;49.932;10.884;2023-04-25T01:42:11;6.43;;;2.85;;
66721;SDS011;53633;49.932;10.884;2023-04-25T01:44:39;8.65;;;2.92;;
66721;SDS011;53633;49.932;10.884;2023-04-25T01:47:05;7.70;;;3.20;;
66721;SDS011;53633;49.932;10.884;2023-04-25T01:49:32;8.68;;;3.08;;
66721;SDS011;53633;49.932;10.884;2023-04-25T01:51:59;8.18;;;3.20;;
66721;SDS011;53633;49.932;10.884;2023-04-25T01:54:25;8.48;;;3.50;;
66721;SDS011;53633;49.932;10.884;2023-04-25T01:56:55;8.52;;;3.05;;
66721;SDS011;53633;49.932;10.884;2023-04-25T01:59:23;8.38;;;3.35;;
66721;SDS011;53633;49.932;10.884;2023-04-25T02:01:50;8.13;;;3.35;;
66721;SDS011;53633;49.932;10.884;2023-04-25T02:04:16;7.85;;;3.45;;
66721;SDS011;53633;49.932;10.884;2023-04-25T02:06:43;7.68;;;3.35;;
66721;SDS011;53633;49.932;10.884;2023-04-25T02:09:10;8.32;;;3.42;;
66721;SDS011;53633;49.932;10.884;2023-04-25T02:11:36;7.75;;;3.47;;
66721;SDS011;53633;49.932;10.884;2023-04-25T02:14:04;9.68;;;4.03;;
66721;SDS011;53633;49.932;10.884;2023-04-25T02:16:31;7.47;;;3.47;;
66721;SDS011;53633;49.932;10.884;2023-04-25T02:18:58;7.55;;;3.00;;
66721;SDS011;53633;49.932;10.884;2023-04-25T02:21:24;9.02;;;3.35;;
66721;SDS011;53633;49.932;10.884;2023-04-25T02:23:51;8.43;;;3.35;;
66721;SDS011;53633;49.932;10.884;2023-04-25T02:26:18;8.43;;;3.53;;
66721;SDS011;53633;49.932;10.884;2023-04-25T02:28:45;8.68;;;3.75;;
66721;SDS011;53633;49.932;10.884;2023-04-25T02:31:13;9.10;;;3.55;;
66721;SDS011;53633;49.932;10.884;2023-04-25T02:33:39;9.25;;;3.50;;
66721;SDS011;53633;49.932;10.884;2023-04-25T02:36:06;7.57;;;2.97;;
66721;SDS011;53633;49.932;10.884;2023-04-25T02:38:33;8.65;;;3.70;;
66721;SDS011;53633;49.932;10.884;2023-04-25T02:41:00;9.27;;;3.67;;
66721;SDS011;53633;49.932;10.884;2023-04-25T02:43:26;10.02;;;3.72;;
66721;SDS011;53633;49.932;10.884;2023-04-25T02:45:53;9.55;;;3.88;;
66721;SDS011;53633;49.932;10.884;2023-04-25T02:48:21;9.60;;;4.32;;
66721;SDS011;53633;49.932;10.884;2023-04-25T02:50:48;11.25;;;4.22;;
66721;SDS011;53633;49.932;10.884;2023-04-25T02:53:14;10.68;;;4.15;;
66721;SDS011;53633;49.932;10.884;2023-04-25T02:55:41;9.43;;;3.90;;
66721;SDS011;53633;49.932;10.884;2023-04-25T02:58:07;10.50;;;3.97;;
66721;SDS011;53633;49.932;10.884;2023-04-25T03:00:34;9.68;;;3.97;;
66721;SDS011;53633;49.932;10.884;2023-04-25T03:03:01;10.10;;;4.63;;
66721;SDS011;53633;49.932;10.884;2023-04-25T03:05:29;10.48;;;4.10;;
66721;SDS011;53633;49.932;10.884;2023-04-25T03:07:55;9.52;;;3.92;;
66721;SDS011;53633;49.932;10.884;2023-04-25T03:10:22;10.73;;;4.50;;
66721;SDS011;53633;49.932;10.884;2023-04-25T03:12:49;12.02;;;4.18;;
66721;SDS011;53633;49.932;10.884;2023-04-25T03:15:15;11.18;;;4.40;;
66721;SDS011;53633;49.932;10.884;2023-04-25T03:17:42;11.75;;;5.32;;
66721;SDS011;53633;49.932;10.884;2023-04-25T03:20:09;12.55;;;4.93;;
66721;SDS011;53633;49.932;10.884;2023-04-25T03:22:38;10.68;;;4.90;;
66721;SDS011;53633;49.932;10.884;2023-04-25T03:25:05;11.05;;;4.72;;
66721;SDS011;53633;49.932;10.884;2023-04-25T03:27:32;10.95;;;4.60;;
66721;SDS011;53633;49.932;10.884;2023-04-25T03:29:59;10.77;;;4.57;;
66721;SDS011;53633;49.932;10.884;2023-04-25T03:32:25;10.93;;;4.32;;
66721;SDS011;53633;49.932;10.884;2023-04-25T03:34:52;9.55;;;4.25;;
66721;SDS011;53633;49.932;10.884;2023-04-25T03:37:19;12.48;;;4.80;;
66721;SDS011;53633;49.932;10.884;2023-04-25T03:39:47;10.10;;;4.10;;
66721;SDS011;53633;49.932;10.884;2023-04-25T03:42:13;11.88;;;4.28;;
66721;SDS011;53633;49.932;10.884;2023-04-25T03:44:40;9.38;;;4.20;;
66721;SDS011;53633;49.932;10.884;2023-04-25T03:47:06;9.50;;;3.90;;
66721;SDS011;53633;49.932;10.884;2023-04-25T03:49:33;11.50;;;4.13;;
66721;SDS011;53633;49.932;10.884;2023-04-25T03:52:00;8.98;;;4.00;;
66721;SDS011;53633;49.932;10.884;2023-04-25T03:54:27;8.70;;;3.50;;
66721;SDS011;53633;49.932;10.884;2023-04-25T03:56:55;9.27;;;3.45;;
66721;SDS011;53633;49.932;10.884;2023-04-25T03:59:22;8.88;;;3.63;;
66721;SDS011;53633;49.932;10.884;2023-04-25T04:01:48;9.55;;;4.03;;
66721;SDS011;53633;49.932;10.884;2023-04-25T04:04:15;10.27;;;3.92;;
66721;SDS011;53633;49.932;10.884;2023-04-25T04:06:42;8.10;;;3.47;;
66721;SDS011;53633;49.932;10.884;2023-04-25T04:09:09;9.85;;;3.78;;
66721;SDS011;53633;49.932;10.884;2023-04-25T04:11:35;9.88;;;3.88;;
66721;SDS011;53633;49.932;10.884;2023-04-25T04:14:03;10.00;;;3.45;;
66721;SDS011;53633;49.932;10.884;2023-04-25T04:16:30;8.48;;;3.20;;
66721;SDS011;53633;49.932;10.884;2023-04-25T04:18:59;6.43;;;2.38;;
66721;SDS011;53633;49.932;10.884;2023-04-25T04:21:26;7.05;;;2.30;;
66721;SDS011;53633;49.932;10.884;2023-04-25T04:23:53;8.27;;;3.00;;
66721;SDS011;53633;49.932;10.884;2023-04-25T04:26:19;8.13;;;3.72;;
66721;SDS011;53633;49.932;10.884;2023-04-25T04:28:46;7.40;;;3.20;;
66721;SDS011;53633;49.932;10.884;2023-04-25T04:31:14;6.75;;;2.58;;
66721;SDS011;53633;49.932;10.884;2023-04-25T04:33:40;8.10;;;2.88;;
66721;SDS011;53633;49.932;10.884;2023-04-25T04:36:07;7.78;;;2.90;;
66721;SDS011;53633;49.932;10.884;2023-04-25T04:38:34;9.00;;;2.80;;
66721;SDS011;53633;49.932;10.884;2023-04-25T04:41:00;6.78;;;2.85;;
66721;SDS011;53633;49.932;10.884;2023-04-25T04:45:57;7.20;;;2.83;;
66721;SDS011;53633;49.932;10.884;2023-04-25T04:48:25;7.38;;;2.78;;
66721;SDS011;53633;49.932;10.884;2023-04-25T04:50:52;7.28;;;2.90;;
66721;SDS011;53633;49.932;10.884;2023-04-25T04:53:18;6.75;;;2.70;;
66721;SDS011;53633;49.932;10.884;2023-04-25T04:55:50;6.68;;;2.95;;
66721;SDS011;53633;49.932;10.884;2023-04-25T04:58:21;7.82;;;2.83;;
66721;SDS011;53633;49.932;10.884;2023-04-25T05:01:10;8.23;;;3.20;;
66721;SDS011;53633;49.932;10.884;2023-04-25T05:03:53;7.85;;;3.20;;
66721;SDS011;53633;49.932;10.884;2023-04-25T05:06:30;8.75;;;3.58;;
66721;SDS011;53633;49.932;10.884;2023-04-25T05:09:11;7.28;;;3.30;;
66721;SDS011;53633;49.932;10.884;2023-04-25T05:11:44;7.70;;;3.40;;
66721;SDS011;53633;49.932;10.884;2023-04-25T05:14:11;8.10;;;3.13;;
66721;SDS011;53633;49.932;10.884;2023-04-25T05:16:40;8.10;;;3.58;;
66721;SDS011;53633;49.932;10.884;2023-04-25T05:19:20;8.77;;;3.80;;
66721;SDS011;53633;49.932;10.884;2023-04-25T05:21:51;8.18;;;3.88;;
66721;SDS011;53633;49.932;10.884;2023-04-25T05:24:28;7.85;;;3.58;;
66721;SDS011;53633;49.932;10.884;2023-04-25T05:26:57;8.82;;;3.60;;
66721;SDS011;53633;49.932;10.884;2023-04-25T05:29:41;8.77;;;3.63;;
66721;SDS011;53633;49.932;10.884;2023-04-25T05:32:10;12.40;;;3.95;;
66721;SDS011;53633;49.932;10.884;2023-04-25T05:34:43;10.18;;;4.22;;
66721;SDS011;53633;49.932;10.884;2023-04-25T05:37:21;9.45;;;4.25;;
66721;SDS011;53633;49.932;10.884;2023-04-25T05:39:50;10.68;;;4.28;;
66721;SDS011;53633;49.932;10.884;2023-04-25T05:42:26;10.10;;;4.50;;
66721;SDS011;53633;49.932;10.884;2023-04-25T05:45:00;9.85;;;4.25;;
66721;SDS011;53633;49.932;10.884;2023-04-25T05:47:28;18.10;;;5.85;;
66721;SDS011;53633;49.932;10.884;2023-04-25T05:50:05;10.90;;;4.90;;
66721;SDS011;53633;49.932;10.884;2023-04-25T05:52:45;10.65;;;4.40;;
66721;SDS011;53633;49.932;10.884;2023-04-25T05:55:13;12.15;;;5.30;;
66721;SDS011;53633;49.932;10.884;2023-04-25T05:57:41;12.25;;;4.82;;
66721;SDS011;53633;49.932;10.884;2023-04-25T06:00:10;11.15;;;4.25;;
66721;SDS011;53633;49.932;10.884;2023-04-25T06:02:41;11.52;;;5.22;;
66721;SDS011;53633;49.932;10.884;2023-04-25T06:05:14;10.50;;;4.85;;
66721;SDS011;53633;49.932;10.884;2023-04-25T06:07:46;12.65;;;5.57;;
66721;SDS011;53633;49.932;10.884;2023-04-25T06:10:14;12.60;;;5.40;;
66721;SDS011;53633;49.932;10.884;2023-04-25T06:12:45;12.77;;;5.78;;
66721;SDS011;53633;49.932;10.884;2023-04-25T06:15:12;11.30;;;5.25;;
66721;SDS011;53633;49.932;10.884;2023-04-25T06:17:55;15.20;;;5.50;;
66721;SDS011;53633;49.932;10.884;2023-04-25T06:20:31;12.82;;;6.00;;
66721;SDS011;53633;49.932;10.884;2023-04-25T06:23:06;14.90;;;6.10;;
66721;SDS011;53633;49.932;10.884;2023-04-25T06:25:35;13.40;;;5.72;;
66721;SDS011;53633;49.932;10.884;2023-04-25T06:28:08;11.85;;;5.50;;
66721;SDS011;53633;49.932;10.884;2023-04-25T06:30:39;12.38;;;5.60;;
66721;SDS011;53633;49.932;10.884;2023-04-25T06:33:10;13.05;;;6.40;;
66721;SDS011;53633;49.932;10.884;2023-04-25T06:35:45;14.15;;;6.60;;
66721;SDS011;53633;49.932;10.884;2023-04-25T06:38:26;14.07;;;5.45;;
66721;SDS011;53633;49.932;10.884;2023-04-25T06:40:59;12.50;;;5.75;;
66721;SDS011;53633;49.932;10.884;2023-04-25T06:43:27;12.15;;;5.30;;
66721;SDS011;53633;49.932;10.884;2023-04-25T06:45:58;11.35;;;5.07;;
66721;SDS011;53633;49.932;10.884;2023-04-25T06:48:27;12.10;;;5.82;;
66721;SDS011;53633;49.932;10.884;2023-04-25T06:51:09;12.57;;;6.15;;
66721;SDS011;53633;49.932;10.884;2023-04-25T06:53:49;13.05;;;6.65;;
66721;SDS011;53633;49.932;10.884;2023-04-25T06:56:19;14.35;;;7.05;;
66721;SDS011;53633;49.932;10.884;2023-04-25T06:58:49;15.73;;;8.27;;
66721;SDS011;53633;49.932;10.884;2023-04-25T07:01:18;12.52;;;6.90;;
66721;SDS011;53633;49.932;10.884;2023-04-25T07:03:48;12.88;;;7.80;;
66721;SDS011;53633;49.932;10.884;2023-04-25T07:06:22;12.85;;;4.82;;
66721;SDS011;53633;49.932;10.884;2023-04-25T07:08:55;8.80;;;4.38;;
66721;SDS011;53633;49.932;10.884;2023-04-25T07:11:25;8.80;;;4.93;;
66721;SDS011;53633;49.932;10.884;2023-04-25T07:16:44;10.75;;;4.40;;
66721;SDS011;53633;49.932;10.884;2023-04-25T07:19:17;10.15;;;4.53;;
66721;SDS011;53633;49.932;10.884;2023-04-25T07:21:53;11.63;;;5.13;;
66721;SDS011;53633;49.932;10.884;2023-04-25T07:24:21;11.17;;;5.50;;
66721;SDS011;53633;49.932;10.884;2023-04-25T07:26:53;9.32;;;4.80;;
66721;SDS011;53633;49.932;10.884;2023-04-25T07:29:21;10.18;;;4.55;;
66721;SDS011;53633;49.932;10.884;2023-04-25T07:31:50;9.57;;;4.10;;
66721;SDS011;53633;49.932;10.884;2023-04-25T07:34:24;10.90;;;4.68;;
66721;SDS011;53633;49.932;10.884;2023-04-25T07:36:55;7.97;;;4.43;;
66721;SDS011;53633;49.932;10.884;2023-04-25T07:39:25;9.45;;;4.22;;
66721;SDS011;53633;49.932;10.884;2023-04-25T07:41:54;8.00;;;3.67;;
66721;SDS011;53633;49.932;10.884;2023-04-25T07:44:27;8.27;;;4.05;;
66721;SDS011;53633;49.932;10.884;2023-04-25T07:47:02;9.93;;;4.38;;
66721;SDS011;53633;49.932;10.884;2023-04-25T07:49:35;8.07;;;4.20;;
66721;SDS011;53633;49.932;10.884;2023-04-25T07:52:11;10.43;;;4.60;;
66721;SDS011;53633;49.932;10.884;2023-04-25T07:54:39;9.48;;;3.90;;
66721;SDS011;53633;49.932;10.884;2023-04-25T07:57:07;6.80;;;3.50;;
66721;SDS011;53633;49.932;10.884;2023-04-25T07:59:40;8.63;;;3.80;;
66721;SDS011;53633;49.932;10.884;2023-04-25T08:02:13;7.90;;;3.40;;
66721;SDS011;53633;49.932;10.884;2023-04-25T08:04:47;8.48;;;3.95;;
66721;SDS011;53633;49.932;10.884;2023-04-25T08:07:22;10.40;;;4.30;;
66721;SDS011;53633;49.932;10.884;2023-04-25T08:09:50;8.75;;;3.85;;
66721;SDS011;53633;49.932;10.884;2023-04-25T08:12:17;9.48;;;3.90;;
66721;SDS011;53633;49.932;10.884;2023-04-25T08:14:48;9.83;;;3.40;;
66721;SDS011;53633;49.932;10.884;2023-04-25T08:17:28;6.65;;;2.95;;
66721;SDS011;53633;49.932;10.884;2023-04-25T08:22:47;6.40;;;2.60;;
66721;SDS011;53633;49.932;10.884;2023-04-25T08:25:17;7.25;;;2.33;;
66721;SDS011;53633;49.932;10.884;2023-04-25T08:28:02;5.53;;;2.10;;
66721;SDS011;53633;49.932;10.884;2023-04-25T08:30:34;6.55;;;2.10;;
66721;SDS011;53633;49.932;10.884;2023-04-25T08:33:17;7.05;;;2.35;;
66721;SDS011;53633;49.932;10.884;2023-04-25T08:35:49;9.15;;;2.60;;
66721;SDS011;53633;49.932;10.884;2023-04-25T08:38:18;5.82;;;1.95;;
66721;SDS011;53633;49.932;10.884;2023-04-25T08:40:45;8.67;;;2.30;;
66721;SDS011;53633;49.932;10.884;2023-04-25T08:43:18;5.05;;;2.15;;
66721;SDS011;53633;49.932;10.884;2023-04-25T08:45:46;7.13;;;2.50;;
66721;SDS011;53633;49.932;10.884;2023-04-25T08:48:16;5.82;;;2.10;;
66721;SDS011;53633;49.932;10.884;2023-04-25T08:50:49;6.80;;;2.53;;
66721;SDS011;53633;49.932;10.884;2023-04-25T08:53:28;6.10;;;2.40;;
66721;SDS011;53633;49.932;10.884;2023-04-25T08:56:03;5.47;;;2.15;;
66721;SDS011;53633;49.932;10.884;2023-04-25T08:58:32;6.93;;;2.00;;
66721;SDS011;53633;49.932;10.884;2023-04-25T09:01:01;6.13;;;2.20;;
66721;SDS011;53633;49.932;10.884;2023-04-25T09:03:32;8.60;;;2.45;;
66721;SDS011;53633;49.932;10.884;2023-04-25T09:06:04;6.37;;;2.00;;
66721;SDS011;53633;49.932;10.884;2023-04-25T09:08:38;5.95;;;2.22;;
66721;SDS011;53633;49.932;10.884;2023-04-25T09:11:09;5.82;;;2.17;;
66721;SDS011;53633;49.932;10.884;2023-04-25T09:13:37;7.97;;;2.00;;
66721;SDS011;53633;49.932;10.884;2023-04-25T09:16:06;5.47;;;2.22;;
66721;SDS011;53633;49.932;10.884;2023-04-25T09:18:42;5.70;;;2.43;;
66721;SDS011;53633;49.932;10.884;2023-04-25T09:21:15;4.78;;;2.05;;
66721;SDS011;53633;49.932;10.884;2023-04-25T09:23:48;7.78;;;2.47;;
66721;SDS011;53633;49.932;10.884;2023-04-25T09:26:22;5.88;;;2.20;;
66721;SDS011;53633;49.932;10.884;2023-04-25T09:28:49;5.85;;;1.98;;
66721;SDS011;53633;49.932;10.884;2023-04-25T09:31:34;5.60;;;2.07;;
66721;SDS011;53633;49.932;10.884;2023-04-25T09:34:25;6.70;;;2.10;;
66721;SDS011;53633;49.932;10.884;2023-04-25T09:36:54;8.07;;;2.15;;
66721;SDS011;53633;49.932;10.884;2023-04-25T09:42:16;5.25;;;2.00;;
66721;SDS011;53633;49.932;10.884;2023-04-25T09:44:48;5.17;;;2.07;;
66721;SDS011;53633;49.932;10.884;2023-04-25T09:47:19;5.78;;;1.73;;
66721;SDS011;53633;49.932;10.884;2023-04-25T09:49:54;5.22;;;1.67;;
66721;SDS011;53633;49.932;10.884;2023-04-25T09:52:27;5.57;;;2.03;;
66721;SDS011;53633;49.932;10.884;2023-04-25T09:57:57;6.67;;;1.70;;
66721;SDS011;53633;49.932;10.884;2023-04-25T10:00:33;3.72;;;1.30;;
66721;SDS011;53633;49.932;10.884;2023-04-25T10:03:05;4.35;;;1.48;;
66721;SDS011;53633;49.932;10.884;2023-04-25T10:05:53;4.72;;;1.23;;
66721;SDS011;53633;49.932;10.884;2023-04-25T10:08:31;3.72;;;1.30;;
66721;SDS011;53633;49.932;10.884;2023-04-25T10:11:07;5.83;;;1.20;;
66721;SDS011;53633;49.932;10.884;2023-04-25T10:13:49;3.75;;;1.30;;
66721;SDS011;53633;49.932;10.884;2023-04-25T10:16:21;3.85;;;1.08;;
66721;SDS011;53633;49.932;10.884;2023-04-25T10:18:48;4.38;;;0.90;;
66721;SDS011;53633;49.932;10.884;2023-04-25T10:21:21;3.88;;;0.90;;
66721;SDS011;53633;49.932;10.884;2023-04-25T10:23:49;2.83;;;0.77;;
66721;SDS011;53633;49.932;10.884;2023-04-25T10:29:06;3.13;;;0.90;;
66721;SDS011;53633;49.932;10.884;2023-04-25T10:34:25;2.70;;;0.77;;
66721;SDS011;53633;49.932;10.884;2023-04-25T10:37:05;2.30;;;0.70;;
66721;SDS011;53633;49.932;10.884;2023-04-25T10:39:40;3.78;;;0.90;;
66721;SDS011;53633;49.932;10.884;2023-04-25T10:42:12;3.35;;;0.90;;
66721;SDS011;53633;49.932;10.884;2023-04-25T10:44:41;3.20;;;0.75;;
66721;SDS011;53633;49.932;10.884;2023-04-25T10:47:34;2.47;;;0.70;;
66721;SDS011;53633;49.932;10.884;2023-04-25T10:50:14;2.80;;;0.63;;
66721;SDS011;53633;49.932;10.884;2023-04-25T10:52:45;3.40;;;0.88;;
66721;SDS011;53633;49.932;10.884;2023-04-25T10:55:17;2.80;;;1.00;;
66721;SDS011;53633;49.932;10.884;2023-04-25T10:57:51;2.60;;;0.88;;
66721;SDS011;53633;49.932;10.884;2023-04-25T11:00:23;3.22;;;1.00;;
66721;SDS011;53633;49.932;10.884;2023-04-25T11:03:08;3.20;;;1.00;;
66721;SDS011;53633;49.932;10.884;2023-04-25T11:05:47;2.45;;;1.00;;
66721;SDS011;53633;49.932;10.884;2023-04-25T11:08:25;3.65;;;0.85;;
66721;SDS011;53633;49.932;10.884;2023-04-25T11:11:09;4.03;;;1.00;;
66721;SDS011;53633;49.932;10.884;2023-04-25T11:13:38;3.38;;;1.10;;
66721;SDS011;53633;49.932;10.884;2023-04-25T11:16:30;3.40;;;1.00;;
66721;SDS011;53633;49.932;10.884;2023-04-25T11:19:04;5.07;;;1.05;;
66721;SDS011;53633;49.932;10.884;2023-04-25T11:21:34;3.42;;;1.05;;
66721;SDS011;53633;49.932;10.884;2023-04-25T11:24:09;5.40;;;1.00;;
66721;SDS011;53633;49.932;10.884;2023-04-25T11:26:38;3.30;;;1.00;;
66721;SDS011;53633;49.932;10.884;2023-04-25T11:29:14;4.53;;;1.03;;
66721;SDS011;53633;49.932;10.884;2023-04-25T11:32:04;5.15;;;1.67;;
66721;SDS011;53633;49.932;10.884;2023-04-25T11:34:38;4.07;;;1.38;;
66721;SDS011;53633;49.932;10.884;2023-04-25T11:37:11;3.78;;;1.10;;
66721;SDS011;53633;49.932;10.884;2023-04-25T11:39:48;3.60;;;1.20;;
66721;SDS011;53633;49.932;10.884;2023-04-25T11:42:23;4.70;;;1.27;;
66721;SDS011;53633;49.932;10.884;2023-04-25T11:47:42;6.43;;;1.48;;
66721;SDS011;53633;49.932;10.884;2023-04-25T11:50:11;5.85;;;1.33;;
66721;SDS011;53633;49.932;10.884;2023-04-25T11:52:38;5.15;;;1.92;;
66721;SDS011;53633;49.932;10.884;2023-04-25T11:55:08;2.97;;;1.00;;
66721;SDS011;53633;49.932;10.884;2023-04-25T11:57:39;3.13;;;1.20;;
66721;SDS011;53633;49.932;10.884;2023-04-25T12:00:10;5.20;;;1.38;;
66721;SDS011;53633;49.932;10.884;2023-04-25T12:02:57;4.93;;;1.58;;
66721;SDS011;53633;49.932;10.884;2023-04-25T12:05:28;4.00;;;1.13;;
66721;SDS011;53633;49.932;10.884;2023-04-25T12:08:12;4.50;;;1.10;;
66721;SDS011;53633;49.932;10.884;2023-04-25T12:10:41;5.82;;;1.38;;
66721;SDS011;53633;49.932;10.884;2023-04-25T12:13:17;3.20;;;0.90;;
66721;SDS011;53633;49.932;10.884;2023-04-25T12:15:50;5.70;;;1.55;;
66721;SDS011;53633;49.932;10.884;2023-04-25T12:18:26;4.30;;;1.45;;
66721;SDS011;53633;49.932;10.884;2023-04-25T12:20:54;5.00;;;1.30;;
66721;SDS011;53633;49.932;10.884;2023-04-25T12:23:26;5.18;;;1.70;;
66721;SDS011;53633;49.932;10.884;2023-04-25T12:25:58;8.43;;;2.88;;
66721;SDS011;53633;49.932;10.884;2023-04-25T12:28:32;4.28;;;1.30;;
66721;SDS011;53633;49.932;10.884;2023-04-25T12:31:12;11.13;;;1.83;;
66721;SDS011;53633;49.932;10.884;2023-04-25T12:33:50;3.97;;;1.20;;
66721;SDS011;53633;49.932;10.884;2023-04-25T12:36:18;4.30;;;1.50;;
66721;SDS011;53633;49.932;10.884;2023-04-25T12:38:47;5.47;;;1.50;;
66721;SDS011;53633;49.932;10.884;2023-04-25T12:41:22;4.25;;;1.35;;
66721;SDS011;53633;49.932;10.884;2023-04-25T12:43:51;4.97;;;1.35;;
66721;SDS011;53633;49.932;10.884;2023-04-25T12:46:20;4.17;;;0.90;;
66721;SDS011;53633;49.932;10.884;2023-04-25T12:48:58;3.80;;;0.82;;
66721;SDS011;53633;49.932;10.884;2023-04-25T12:51:43;3.67;;;1.20;;
66721;SDS011;53633;49.932;10.884;2023-04-25T12:54:27;4.38;;;1.10;;
66721;SDS011;53633;49.932;10.884;2023-04-25T12:56:54;3.50;;;1.00;;
66721;SDS011;53633;49.932;10.884;2023-04-25T12:59:24;4.53;;;1.30;;
66721;SDS011;53633;49.932;10.884;2023-04-25T13:01:53;4.57;;;1.40;;
66721;SDS011;53633;49.932;10.884;2023-04-25T13:04:24;4.90;;;1.23;;
66721;SDS011;53633;49.932;10.884;2023-04-25T13:07:12;3.67;;;1.10;;
66721;SDS011;53633;49.932;10.884;2023-04-25T13:09:43;4.72;;;1.05;;
66721;SDS011;53633;49.932;10.884;2023-04-25T13:12:12;4.37;;;1.00;;
66721;SDS011;53633;49.932;10.884;2023-04-25T13:14:39;4.25;;;1.20;;
66721;SDS011;53633;49.932;10.884;2023-04-25T13:17:26;4.38;;;1.10;;
66721;SDS011;53633;49.932;10.884;2023-04-25T13:20:00;2.35;;;0.80;;
66721;SDS011;53633;49.932;10.884;2023-04-25T13:22:31;3.58;;;1.10;;
66721;SDS011;53633;49.932;10.884;2023-04-25T13:25:04;4.03;;;1.10;;
66721;SDS011;53633;49.932;10.884;2023-04-25T13:27:33;3.28;;;0.90;;
66721;SDS011;53633;49.932;10.884;2023-04-25T13:30:18;4.50;;;0.95;;
66721;SDS011;53633;49.932;10.884;2023-04-25T13:32:51;4.40;;;1.40;;
66721;SDS011;53633;49.932;10.884;2023-04-25T13:35:25;3.00;;;0.77;;
66721;SDS011;53633;49.932;10.884;2023-04-25T13:37:56;13.70;;;3.27;;
66721;SDS011;53633;49.932;10.884;2023-04-25T13:40:44;8.65;;;1.60;;
66721;SDS011;53633;49.932;10.884;2023-04-25T13:43:16;3.80;;;0.90;;
66721;SDS011;53633;49.932;10.884;2023-04-25T13:45:56;3.97;;;0.90;;
66721;SDS011;53633;49.932;10.884;2023-04-25T13:49:13;2.90;;;0.70;;
66721;SDS011;53633;49.932;10.884;2023-04-25T13:51:46;3.17;;;0.83;;
66721;SDS011;53633;49.932;10.884;2023-04-25T13:54:17;3.33;;;1.15;;
66721;SDS011;53633;49.932;10.884;2023-04-25T13:56:47;3.80;;;0.70;;
66721;SDS011;53633;49.932;10.884;2023-04-25T13:59:20;4.43;;;1.08;;
66721;SDS011;53633;49.932;10.884;2023-04-25T14:02:07;4.15;;;0.88;;
66721;SDS011;53633;49.932;10.884;2023-04-25T14:04:46;5.33;;;1.23;;
66721;SDS011;53633;49.932;10.884;2023-04-25T14:07:16;7.07;;;1.75;;
66721;SDS011;53633;49.932;10.884;2023-04-25T14:12:33;6.15;;;1.40;;
66721;SDS011;53633;49.932;10.884;2023-04-25T14:15:09;3.47;;;1.10;;
66721;SDS011;53633;49.932;10.884;2023-04-25T14:17:39;4.93;;;1.20;;
66721;SDS011;53633;49.932;10.884;2023-04-25T14:20:15;3.65;;;1.10;;
66721;SDS011;53633;49.932;10.884;2023-04-25T14:22:44;4.32;;;1.00;;
66721;SDS011;53633;49.932;10.884;2023-04-25T14:25:16;6.20;;;1.30;;
66721;SDS011;53633;49.932;10.884;2023-04-25T14:28:10;4.18;;;1.33;;
66721;SDS011;53633;49.932;10.884;2023-04-25T14:30:38;5.17;;;1.40;;
66721;SDS011;53633;49.932;10.884;2023-04-25T14:33:12;5.78;;;1.20;;
66721;SDS011;53633;49.932;10.884;2023-04-25T14:35:49;5.70;;;1.30;;
66721;SDS011;53633;49.932;10.884;2023-04-25T14:38:21;4.93;;;1.50;;
66721;SDS011;53633;49.932;10.884;2023-04-25T14:40:48;5.35;;;1.10;;
66721;SDS011;53633;49.932;10.884;2023-04-25T14:43:19;6.93;;;1.50;;
66721;SDS011;53633;49.932;10.884;2023-04-25T14:45:47;4.50;;;1.45;;
66721;SDS011;53633;49.932;10.884;2023-04-25T14:48:23;5.15;;;1.50;;
66721;SDS011;53633;49.932;10.884;2023-04-25T14:50:50;4.45;;;1.30;;
66721;SDS011;53633;49.932;10.884;2023-04-25T14:53:27;5.93;;;1.48;;
66721;SDS011;53633;49.932;10.884;2023-04-25T14:56:01;4.40;;;1.20;;
66721;SDS011;53633;49.932;10.884;2023-04-25T14:58:28;8.40;;;1.70;;
66721;SDS011;53633;49.932;10.884;2023-04-25T15:00:58;6.13;;;1.40;;
66721;SDS011;53633;49.932;10.884;2023-04-25T15:03:27;5.38;;;1.38;;
66721;SDS011;53633;49.932;10.884;2023-04-25T15:05:55;5.03;;;1.80;;
66721;SDS011;53633;49.932;10.884;2023-04-25T15:08:24;5.00;;;1.17;;
66721;SDS011;53633;49.932;10.884;2023-04-25T15:11:00;6.63;;;1.55;;
66721;SDS011;53633;49.932;10.884;2023-04-25T15:13:34;7.32;;;1.20;;
66721;SDS011;53633;49.932;10.884;2023-04-25T15:16:20;4.80;;;1.30;;
66721;SDS011;53633;49.932;10.884;2023-04-25T15:18:49;5.53;;;1.60;;
66721;SDS011;53633;49.932;10.884;2023-04-25T15:21:22;6.60;;;1.47;;